createdAt,value
2019-02-19T00:02:06.015Z,98363.09
2019-02-19T00:04:53.447Z,98369.98
2019-02-19T00:07:40.675Z,98362.75
2019-02-19T00:10:28.389Z,98356.87
2019-02-19T00:13:15.917Z,98362.50
2019-02-19T00:16:04.363Z,98361.25
2019-02-19T00:18:51.791Z,98354.39
2019-02-19T00:21:39.110Z,98353.42
2019-02-19T00:24:27.045Z,98352.77
2019-02-19T00:27:14.722Z,98353.91
2019-02-19T00:30:02.201Z,98358.20
2019-02-19T00:32:49.728Z,98352.22
2019-02-19T00:35:36.844Z,98357.20
2019-02-19T00:38:24.473Z,98354.80
2019-02-19T00:41:12.215Z,98353.48
2019-02-19T00:43:59.940Z,98348.59
2019-02-19T00:46:47.567Z,98349.75
2019-02-19T00:49:36.220Z,98346.79
2019-02-19T00:52:23.850Z,98346.28
2019-02-19T00:55:11.783Z,98347.90
2019-02-19T00:57:59.219Z,98349.36
2019-02-19T01:00:46.837Z,98344.42
2019-02-19T01:03:34.469Z,98353.23
2019-02-19T01:06:22.099Z,98350.25
2019-02-19T01:09:10.150Z,98357.72
2019-02-19T01:11:57.660Z,98351.89
2019-02-19T01:14:45.506Z,98350.05
2019-02-19T01:17:32.508Z,98346.86
2019-02-19T01:20:19.824Z,98356.73
2019-02-19T01:23:06.939Z,98346.86
2019-02-19T01:25:54.570Z,98351.36
2019-02-19T01:28:41.889Z,98351.72
2019-02-19T01:31:29.313Z,98358.96
2019-02-19T01:34:17.237Z,98354.64
2019-02-19T01:37:04.777Z,98346.45
2019-02-19T01:39:52.303Z,98349.93
2019-02-19T01:42:39.932Z,98346.87
2019-02-19T01:45:33.910Z,98337.73
2019-02-19T01:48:16.630Z,98345.91
2019-02-19T01:51:04.258Z,98347.39
2019-02-19T01:53:51.676Z,98341.34
2019-02-19T01:56:41.744Z,98341.00
2019-02-19T01:59:28.372Z,98336.42
2019-02-19T02:02:15.894Z,98340.59
2019-02-19T02:05:03.522Z,98340.94
2019-02-19T02:07:50.846Z,98334.16
2019-02-19T02:10:38.472Z,98335.94
2019-02-19T02:13:26.306Z,98334.61
2019-02-19T02:16:13.943Z,98338.16
2019-02-19T02:19:01.886Z,98340.09
2019-02-19T02:21:49.502Z,98338.88
2019-02-19T02:24:37.237Z,98339.97
2019-02-19T02:27:24.655Z,98337.44
2019-02-19T02:30:11.987Z,98344.80
2019-02-19T02:32:59.611Z,98344.58
2019-02-19T02:35:47.550Z,98344.31
2019-02-19T02:38:35.175Z,98342.53
2019-02-19T02:41:23.018Z,98335.52
2019-02-19T02:44:10.127Z,98329.16
2019-02-19T02:46:57.856Z,98332.83
2019-02-19T02:49:45.278Z,98337.05
2019-02-19T02:52:32.627Z,98335.05
2019-02-19T02:55:20.334Z,98335.44
2019-02-19T02:58:07.960Z,98333.17
2019-02-19T03:00:55.104Z,98332.55
2019-02-19T03:03:42.501Z,98337.20
2019-02-19T03:06:40.368Z,98337.22
2019-02-19T03:09:27.580Z,98330.64
2019-02-19T03:12:14.813Z,98332.16
2019-02-19T03:15:02.341Z,98329.10
2019-02-19T03:17:49.665Z,98332.30
2019-02-19T03:20:37.081Z,98328.73
2019-02-19T03:23:24.199Z,98321.09
2019-02-19T03:26:12.032Z,98317.50
2019-02-19T03:28:59.765Z,98323.45
2019-02-19T03:31:47.292Z,98322.86
2019-02-19T03:34:34.919Z,98328.09
2019-02-19T03:37:22.035Z,98325.47
2019-02-19T03:40:09.565Z,98329.42
2019-02-19T03:42:57.096Z,98327.83
2019-02-19T03:45:44.923Z,98318.35
2019-02-19T03:48:32.038Z,98329.50
2019-02-19T03:51:19.465Z,98325.41
2019-02-19T03:54:06.989Z,98331.78
2019-02-19T03:56:54.255Z,98336.22
2019-02-19T03:59:41.736Z,98327.22
2019-02-19T04:02:28.854Z,98328.39
2019-02-19T04:05:16.670Z,98337.34
2019-02-19T04:08:03.925Z,98335.73
2019-02-19T04:10:51.229Z,98339.63
2019-02-19T04:13:38.874Z,98336.36
2019-02-19T04:16:26.180Z,98332.77
2019-02-19T04:19:14.833Z,98330.50
2019-02-19T04:22:01.949Z,98335.20
2019-02-19T04:24:49.884Z,98326.40
2019-02-19T04:27:37.211Z,98338.69
2019-02-19T04:30:24.956Z,98335.39
2019-02-19T04:33:12.463Z,98327.54
2019-02-19T04:36:00.502Z,98333.12
2019-02-19T04:38:47.724Z,98331.01
2019-02-19T04:41:34.739Z,98328.88
2019-02-19T04:44:21.957Z,98326.59
2019-02-19T04:47:09.276Z,98322.98
2019-02-19T04:49:56.601Z,98326.59
2019-02-19T04:52:44.332Z,98329.64
2019-02-19T04:55:31.858Z,98331.95
2019-02-19T04:58:19.392Z,98332.75
2019-02-19T05:01:07.216Z,98331.59
2019-02-19T05:03:54.435Z,98326.84
2019-02-19T05:06:43.601Z,98326.49
2019-02-19T05:09:30.925Z,98325.19
2019-02-19T05:12:18.348Z,98321.48
2019-02-19T05:15:11.198Z,98317.73
2019-02-19T05:17:58.689Z,98321.31
2019-02-19T05:20:46.253Z,98320.52
2019-02-19T05:23:33.552Z,98314.19
2019-02-19T05:26:21.312Z,98324.42
2019-02-19T05:29:08.625Z,98313.78
2019-02-19T05:31:55.947Z,98318.70
2019-02-19T05:34:43.475Z,98317.16
2019-02-19T05:37:30.796Z,98316.71
2019-02-19T05:40:18.853Z,98324.62
2019-02-19T05:43:07.388Z,98327.44
2019-02-19T05:45:55.021Z,98331.39
2019-02-19T05:48:42.643Z,98332.04
2019-02-19T05:51:30.176Z,98332.22
2019-02-19T05:54:18.023Z,98334.63
2019-02-19T05:57:05.499Z,98331.05
2019-02-19T05:59:52.753Z,98338.89
2019-02-19T06:02:40.282Z,98339.86
2019-02-19T06:05:28.006Z,98346.29
2019-02-19T06:08:15.624Z,98353.38
2019-02-19T06:11:03.167Z,98353.05
2019-02-19T06:13:50.382Z,98361.44
2019-02-19T06:16:37.717Z,98360.14
2019-02-19T06:19:24.923Z,98370.44
2019-02-19T06:22:12.893Z,98370.97
2019-02-19T06:24:59.846Z,98373.65
2019-02-19T06:27:47.501Z,98378.37
2019-02-19T06:30:35.869Z,98382.58
2019-02-19T06:33:22.968Z,98385.23
2019-02-19T06:36:10.799Z,98384.74
2019-02-19T06:38:58.128Z,98380.77
2019-02-19T06:41:46.054Z,98380.08
2019-02-19T06:44:33.517Z,98387.56
2019-02-19T06:47:20.781Z,98396.89
2019-02-19T06:50:08.543Z,98395.61
2019-02-19T06:52:55.685Z,98400.98
2019-02-19T06:55:44.974Z,98405.91
2019-02-19T06:58:32.353Z,98408.36
2019-02-19T07:01:21.712Z,98404.06
2019-02-19T07:04:16.525Z,98397.23
2019-02-19T07:07:03.521Z,98403.47
2019-02-19T07:09:51.149Z,98411.05
2019-02-19T07:12:38.596Z,98415.08
2019-02-19T07:15:25.803Z,98412.52
2019-02-19T07:18:13.640Z,98421.92
2019-02-19T07:21:01.018Z,98423.05
2019-02-19T07:23:48.784Z,98421.96
2019-02-19T07:26:36.927Z,98427.69
2019-02-19T07:29:26.520Z,98428.84
2019-02-19T07:36:46.718Z,98435.22
2019-02-19T07:39:35.611Z,98435.05
2019-02-19T07:42:23.016Z,98438.33
2019-02-19T07:45:16.887Z,98443.45
2019-02-19T07:48:05.935Z,98445.30
2019-02-19T07:50:53.602Z,98448.28
2019-02-19T07:53:42.225Z,98455.14
2019-02-19T07:56:29.989Z,98455.66
2019-02-19T07:59:17.785Z,98460.42
2019-02-19T08:02:05.332Z,98457.17
2019-02-19T08:04:52.868Z,98457.83
2019-02-19T08:07:40.362Z,98455.25
2019-02-19T08:10:28.915Z,98469.33
2019-02-19T08:13:16.441Z,98466.34
2019-02-19T08:16:04.067Z,98464.62
2019-02-19T08:18:51.185Z,98474.71
2019-02-19T08:21:39.022Z,98470.72
2019-02-19T08:24:26.289Z,98481.42
2019-02-19T08:27:14.279Z,98487.80
2019-02-19T08:30:02.022Z,98479.79
2019-02-19T08:32:49.433Z,98497.16
2019-02-19T08:35:36.974Z,98500.89
2019-02-19T08:38:24.278Z,98499.13
2019-02-19T08:41:11.503Z,98498.47
2019-02-19T08:43:58.617Z,98503.89
2019-02-19T08:46:46.142Z,98504.84
2019-02-19T08:49:33.791Z,98496.34
2019-02-19T08:52:30.515Z,98507.83
2019-02-19T08:55:19.940Z,98506.03
2019-02-19T08:58:10.383Z,98508.81
2019-02-19T09:00:58.013Z,98509.45
2019-02-19T09:03:45.744Z,98523.33
2019-02-19T09:06:33.376Z,98520.05
2019-02-19T09:09:20.997Z,98526.39
2019-02-19T09:12:08.733Z,98525.76
2019-02-19T09:14:56.365Z,98520.49
2019-02-19T09:17:51.613Z,98522.39
2019-02-19T09:20:32.684Z,98529.44
2019-02-19T09:23:19.882Z,98527.79
2019-02-19T09:26:07.802Z,98527.93
2019-02-19T09:28:54.921Z,98531.73
2019-02-19T09:31:42.130Z,98531.10
2019-02-19T09:34:29.665Z,98531.16
2019-02-19T09:37:17.941Z,98529.33
2019-02-19T09:40:07.919Z,98532.50
2019-02-19T09:42:56.538Z,98539.54
2019-02-19T09:45:44.269Z,98539.72
2019-02-19T09:48:31.810Z,98549.51
2019-02-19T09:51:19.839Z,98546.68
2019-02-19T09:54:07.672Z,98552.15
2019-02-19T09:56:55.502Z,98545.33
2019-02-19T09:59:43.131Z,98431.72
2019-02-19T10:02:30.659Z,98545.63
2019-02-19T10:05:18.181Z,98547.80
2019-02-19T10:08:05.720Z,98550.73
2019-02-19T10:10:53.653Z,98562.92
2019-02-19T10:13:41.281Z,98557.40
2019-02-19T10:16:28.804Z,98557.96
2019-02-19T10:19:16.227Z,98564.31
2019-02-19T10:22:03.854Z,98563.51
2019-02-19T10:24:52.460Z,98556.80
2019-02-19T10:27:39.831Z,98567.00
2019-02-19T10:30:27.050Z,98557.75
2019-02-19T10:33:13.962Z,98563.48
2019-02-19T10:36:01.389Z,98563.47
2019-02-19T10:38:48.501Z,98563.69
2019-02-19T10:41:36.234Z,98566.11
2019-02-19T10:44:23.263Z,98572.47
2019-02-19T10:47:10.679Z,98574.70
2019-02-19T10:49:58.201Z,98574.11
2019-02-19T10:52:45.830Z,98563.27
2019-02-19T10:55:33.051Z,98558.75
2019-02-19T10:58:23.010Z,98560.92
2019-02-19T11:01:09.841Z,98569.61
2019-02-19T11:03:57.265Z,98572.56
2019-02-19T11:06:44.697Z,98570.98
2019-02-19T11:09:32.274Z,98568.73
2019-02-19T11:12:19.853Z,98573.64
2019-02-19T11:15:12.800Z,98570.36
2019-02-19T11:18:00.538Z,98573.30
2019-02-19T11:20:48.260Z,98571.02
2019-02-19T11:23:35.686Z,98571.47
2019-02-19T11:26:23.215Z,98568.81
2019-02-19T11:29:10.639Z,98569.34
2019-02-19T11:31:58.368Z,98561.77
2019-02-19T11:34:45.881Z,98564.72
2019-02-19T11:37:33.321Z,98557.00
2019-02-19T11:40:20.748Z,98543.40
2019-02-19T11:43:08.166Z,98542.63
2019-02-19T11:45:55.898Z,98538.84
2019-02-19T11:48:43.121Z,98537.68
2019-02-19T11:51:30.748Z,98539.14
2019-02-19T11:54:18.477Z,98532.58
2019-02-19T11:57:06.213Z,98526.03
2019-02-19T11:59:53.949Z,98524.23
2019-02-19T12:02:41.472Z,98519.78
2019-02-19T12:05:28.894Z,98520.53
2019-02-19T12:08:16.631Z,98527.31
2019-02-19T12:11:04.045Z,98511.12
2019-02-19T12:13:51.674Z,98514.20
2019-02-19T12:16:39.308Z,98514.43
2019-02-19T12:19:26.844Z,98518.11
2019-02-19T12:22:15.177Z,98521.67
2019-02-19T12:25:02.908Z,98518.64
2019-02-19T12:27:50.638Z,98519.01
2019-02-19T12:30:38.083Z,98519.45
2019-02-19T12:33:25.797Z,98506.02
2019-02-19T12:36:14.658Z,98516.64
2019-02-19T12:39:02.178Z,98510.53
2019-02-19T12:41:49.707Z,98503.31
2019-02-19T12:44:37.134Z,98508.01
2019-02-19T12:47:24.657Z,98499.27
2019-02-19T12:50:13.647Z,98503.81
2019-02-19T12:53:00.731Z,98500.73
2019-02-19T12:55:48.462Z,98490.17
2019-02-19T12:58:36.298Z,98486.14
2019-02-19T13:01:23.729Z,98477.53
2019-02-19T13:04:11.359Z,98483.73
2019-02-19T13:06:58.657Z,98493.63
2019-02-19T13:09:46.307Z,98493.58
2019-02-19T13:12:33.614Z,98490.91
2019-02-19T13:15:24.438Z,98487.17
2019-02-19T13:18:12.466Z,98484.31
2019-02-19T13:21:00.095Z,98488.30
2019-02-19T13:23:47.618Z,98480.95
2019-02-19T13:26:35.144Z,98482.25
2019-02-19T13:29:22.184Z,98484.86
2019-02-19T13:32:09.687Z,98485.63
2019-02-19T13:34:57.218Z,98481.77
2019-02-19T13:37:44.642Z,98481.02
2019-02-19T13:40:32.066Z,98480.11
2019-02-19T13:43:19.605Z,98485.34
2019-02-19T13:46:07.269Z,98485.23
2019-02-19T13:48:54.677Z,98494.66
2019-02-19T13:51:42.590Z,98491.23
2019-02-19T13:54:30.414Z,98493.17
2019-02-19T13:57:18.041Z,98490.36
2019-02-19T14:00:07.165Z,98500.67
2019-02-19T14:02:54.327Z,98502.19
2019-02-19T14:05:41.955Z,98506.92
2019-02-19T14:08:31.017Z,98500.91
2019-02-19T14:11:18.437Z,98496.10
2019-02-19T14:14:16.411Z,98499.91
2019-02-19T14:17:03.602Z,98504.36
2019-02-19T14:19:52.698Z,98504.55
2019-02-19T14:22:42.065Z,98506.81
2019-02-19T14:25:36.558Z,98505.00
2019-02-19T14:28:28.483Z,98507.34
2019-02-19T14:31:30.141Z,98516.46
2019-02-19T14:34:35.073Z,98509.97
2019-02-19T14:37:36.633Z,98518.41
2019-02-19T14:40:31.634Z,98517.72
2019-02-19T14:43:35.440Z,98519.43
2019-02-19T14:46:27.577Z,98517.33
2019-02-19T14:49:36.610Z,98517.73
2019-02-19T14:52:33.142Z,98519.20
2019-02-19T14:55:24.991Z,98523.81
2019-02-19T14:58:17.312Z,98524.41
2019-02-19T15:01:06.473Z,98530.16
2019-02-19T15:03:55.740Z,98519.86
2019-02-19T15:06:56.993Z,98523.16
2019-02-19T15:09:51.683Z,98520.53
2019-02-19T15:12:41.055Z,98516.05
2019-02-19T15:15:36.159Z,98515.39
2019-02-19T15:18:37.409Z,98518.20
2019-02-19T15:21:32.713Z,98518.54
2019-02-19T15:24:21.471Z,98518.14
2019-02-19T15:27:10.431Z,98512.72
2019-02-19T15:29:59.497Z,98523.53
2019-02-19T15:32:54.908Z,98530.17
2019-02-19T15:35:53.387Z,98520.34
2019-02-19T15:38:42.961Z,98528.75
2019-02-19T15:41:34.587Z,98528.08
2019-02-19T15:44:23.754Z,98527.34
2019-02-19T15:47:12.513Z,98527.54
2019-02-19T15:50:17.851Z,98522.02
2019-02-19T15:53:09.677Z,98523.55
2019-02-19T15:56:17.785Z,98530.88
2019-02-19T15:59:06.649Z,98525.78
2019-02-19T16:02:07.617Z,98528.38
2019-02-19T16:04:59.621Z,98529.77
2019-02-19T16:07:48.477Z,98528.56
2019-02-19T16:10:37.537Z,98525.33
2019-02-19T16:13:35.411Z,98523.91
2019-02-19T16:16:24.495Z,98532.16
2019-02-19T16:19:16.613Z,98527.83
2019-02-19T16:22:08.238Z,98529.83
2019-02-19T16:25:12.241Z,98535.01
2019-02-19T16:28:19.533Z,98533.09
2019-02-19T16:31:20.369Z,98534.62
2019-02-19T16:34:27.043Z,98541.53
2019-02-19T16:37:18.777Z,98545.80
2019-02-19T16:40:20.837Z,98540.42
2019-02-19T16:43:09.693Z,98540.84
2019-02-19T16:45:58.862Z,98544.84
2019-02-19T16:48:53.964Z,98550.25
2019-02-19T16:51:55.319Z,98546.80
2019-02-19T16:54:50.420Z,98548.64
2019-02-19T16:57:57.605Z,98552.40
2019-02-19T17:00:50.773Z,98556.80
2019-02-19T17:03:48.536Z,98558.81
2019-02-19T17:06:37.083Z,98558.13
2019-02-19T17:09:43.045Z,98566.85
2019-02-19T17:12:37.839Z,98564.38
2019-02-19T17:15:30.174Z,98571.14
2019-02-19T17:18:19.137Z,98577.89
2019-02-19T17:21:10.965Z,98582.81
2019-02-19T17:24:02.692Z,98582.48
2019-02-19T17:26:54.317Z,98590.03
2019-02-19T17:29:52.188Z,98586.45
2019-02-19T17:32:46.894Z,98596.47
2019-02-19T17:35:52.538Z,98589.59
2019-02-19T17:38:41.486Z,98601.57
2019-02-19T17:41:36.188Z,98606.07
2019-02-19T17:44:28.232Z,98606.14
2019-02-19T17:47:20.352Z,98601.80
2019-02-19T17:50:14.125Z,98610.41
2019-02-19T17:53:12.150Z,98614.05
2019-02-19T17:56:03.713Z,98607.63
2019-02-19T17:58:58.104Z,98615.17
2019-02-19T18:01:58.689Z,98620.77
2019-02-19T18:04:49.749Z,98632.81
2019-02-19T18:07:41.069Z,98627.08
2019-02-19T18:10:31.364Z,98632.77
2019-02-19T18:13:21.299Z,98632.08
2019-02-19T18:16:19.107Z,98635.67
2019-02-19T18:19:07.964Z,98641.86
2019-02-19T18:21:57.225Z,98636.39
2019-02-19T18:24:44.752Z,98642.47
2019-02-19T18:27:32.381Z,98645.09
2019-02-19T18:30:20.119Z,98647.39
2019-02-19T18:33:07.797Z,98648.91
2019-02-19T18:35:55.579Z,98644.30
2019-02-19T18:38:43.211Z,98640.95
2019-02-19T18:41:30.939Z,98646.70
2019-02-19T18:44:18.773Z,98645.08
2019-02-19T18:47:06.206Z,98649.53
2019-02-19T18:49:53.923Z,98646.38
2019-02-19T18:52:41.245Z,98651.95
2019-02-19T18:55:29.491Z,98662.19
2019-02-19T18:58:16.913Z,98659.16
2019-02-19T19:01:04.753Z,98656.22
2019-02-19T19:03:52.069Z,98662.03
2019-02-19T19:06:41.791Z,98664.84
2019-02-19T19:09:29.272Z,98665.13
2019-02-19T19:12:16.498Z,98668.61
2019-02-19T19:15:06.107Z,98671.45
2019-02-19T19:17:53.185Z,98666.32
2019-02-19T19:20:40.402Z,98667.55
2019-02-19T19:23:28.046Z,98676.05
2019-02-19T19:26:15.455Z,98673.45
2019-02-19T19:29:03.190Z,98671.79
2019-02-19T19:31:50.818Z,98679.14
2019-02-19T19:34:38.240Z,98679.51
2019-02-19T19:37:25.362Z,98673.96
2019-02-19T19:40:13.507Z,98682.39
2019-02-19T19:43:00.934Z,98682.53
2019-02-19T19:45:48.450Z,98687.80
2019-02-19T19:48:35.875Z,98689.37
2019-02-19T19:51:23.609Z,98685.66
2019-02-19T19:54:11.548Z,98688.48
2019-02-19T19:56:58.765Z,98693.70
2019-02-19T19:59:46.189Z,98694.02
2019-02-19T20:02:34.032Z,98702.41
2019-02-19T20:05:21.545Z,98705.08
2019-02-19T20:08:08.668Z,98703.63
2019-02-19T20:10:56.189Z,98717.42
2019-02-19T20:13:43.638Z,98710.58
2019-02-19T20:16:31.151Z,98714.83
2019-02-19T20:19:18.360Z,98716.82
2019-02-19T20:22:07.426Z,98714.05
2019-02-19T20:24:55.052Z,98714.88
2019-02-19T20:27:42.066Z,98711.43
2019-02-19T20:30:29.592Z,98713.74
2019-02-19T20:33:17.323Z,98719.16
2019-02-19T20:36:05.158Z,98717.17
2019-02-19T20:38:52.894Z,98725.20
2019-02-19T20:41:40.527Z,98722.70
2019-02-19T20:44:28.248Z,98723.39
2019-02-19T20:47:15.266Z,98717.45
2019-02-19T20:50:02.789Z,98719.26
2019-02-19T20:52:50.522Z,98729.27
2019-02-19T20:55:39.711Z,98736.14
2019-02-19T20:58:27.520Z,98729.92
2019-02-19T21:01:14.640Z,98736.83
2019-02-19T21:04:02.062Z,98733.38
2019-02-19T21:06:49.389Z,98734.55
2019-02-19T21:09:43.447Z,98731.74
2019-02-19T21:12:25.361Z,98729.60
2019-02-19T21:15:13.916Z,98730.61
2019-02-19T21:18:01.541Z,98730.27
2019-02-19T21:20:48.961Z,98731.92
2019-02-19T21:23:36.798Z,98729.59
2019-02-19T21:26:24.218Z,98731.70
2019-02-19T21:29:11.746Z,98730.89
2019-02-19T21:31:59.581Z,98731.47
2019-02-19T21:34:47.312Z,98732.36
2019-02-19T21:37:34.838Z,98735.11
2019-02-19T21:40:22.362Z,98738.98
2019-02-19T21:43:09.584Z,98740.18
2019-02-19T21:45:56.905Z,98749.20
2019-02-19T21:48:48.238Z,98748.23
2019-02-19T21:51:33.448Z,98747.85
2019-02-19T21:54:20.922Z,98745.27
2019-02-19T21:57:08.033Z,98740.77
2019-02-19T21:59:55.357Z,98741.92
2019-02-19T22:02:42.884Z,98740.98
2019-02-19T22:05:30.205Z,98740.78
2019-02-19T22:08:18.140Z,98734.83
2019-02-19T22:11:05.461Z,98742.02
2019-02-19T22:13:52.477Z,98744.13
2019-02-19T22:16:39.798Z,98747.89
2019-02-19T22:19:27.349Z,98747.47
2019-02-19T22:22:14.879Z,98744.33
2019-02-19T22:25:02.279Z,98753.06
2019-02-19T22:27:49.497Z,98751.92
2019-02-19T22:30:36.817Z,98760.52
2019-02-19T22:33:24.445Z,98759.55
2019-02-19T22:36:11.462Z,98767.59
2019-02-19T22:38:59.195Z,98761.31
2019-02-19T22:41:46.517Z,98757.52
2019-02-19T22:44:34.043Z,98758.66
2019-02-19T22:47:21.465Z,98755.27
2019-02-19T22:50:09.859Z,98757.82
2019-02-19T22:52:57.850Z,98760.03
2019-02-19T22:55:52.751Z,98766.59
2019-02-19T22:58:40.479Z,98765.80
2019-02-19T23:01:29.439Z,98761.66
2019-02-19T23:04:17.180Z,98765.41
2019-02-19T23:07:04.492Z,98770.66
2019-02-19T23:09:51.813Z,98772.72
2019-02-19T23:12:39.180Z,98769.84
2019-02-19T23:15:26.968Z,98775.95
2019-02-19T23:18:14.089Z,98782.77
2019-02-19T23:21:01.616Z,98780.89
2019-02-19T23:23:49.343Z,98781.81
2019-02-19T23:26:36.667Z,98784.47
2019-02-19T23:29:24.092Z,98779.34
2019-02-19T23:32:11.411Z,98781.97
2019-02-19T23:35:00.579Z,98786.67
2019-02-19T23:37:48.105Z,98784.97
2019-02-19T23:40:35.940Z,98784.44
2019-02-19T23:43:23.373Z,98783.43
2019-02-19T23:46:10.378Z,98791.94
2019-02-19T23:48:57.911Z,98790.14
2019-02-19T23:51:45.122Z,98791.66
2019-02-19T23:54:32.960Z,98488.75
2019-02-19T23:57:20.081Z,98794.38
